Time;durP1;ratioP1;P1;durP2;ratioP2;P2;SDS_P1;SDS_P2;PMS_P1;PMS_P2;Temp;Humidity;BMP_temperature;BMP_pressure;BME280_temperature;BME280_humidity;BME280_pressure;Samples;Min_cycle;Max_cycle;Signal;HPM_P1;HPM_P2
2021/04/23 00:01:48;;;;;;;12.05;5.45;;;4.90;89.50;;;;;;5113952;28;20127;-70
2021/04/23 00:04:14;;;;;;;13.57;5.32;;;4.90;89.50;;;;;;5113922;28;20082;-70
2021/04/23 00:06:53;;;;;;;12.57;5.82;;;4.90;89.90;;;;;;5113075;28;20059;-70
2021/04/23 00:09:25;;;;;;;13.30;6.00;;;4.80;89.70;;;;;;5114254;28;20105;-70
2021/04/23 00:11:53;;;;;;;14.65;6.20;;;4.70;89.90;;;;;;5114131;28;20096;-70
2021/04/23 00:14:21;;;;;;;18.58;6.22;;;4.70;90.00;;;;;;5113758;28;20035;-71
2021/04/23 00:16:47;;;;;;;11.75;5.57;;;4.60;90.20;;;;;;5113374;28;20047;-70
2021/04/23 00:19:18;;;;;;;14.93;5.93;;;4.60;90.20;;;;;;5114014;28;20418;-70
2021/04/23 00:21:44;;;;;;;15.23;6.07;;;4.60;90.10;;;;;;5114187;28;20046;-70
2021/04/23 00:24:11;;;;;;;18.38;7.03;;;4.60;90.20;;;;;;5113697;28;20036;-70
2021/04/23 00:26:40;;;;;;;16.65;5.50;;;4.60;90.20;;;;;;5113309;28;20122;-70
2021/04/23 00:29:06;;;;;;;14.82;5.68;;;4.60;90.20;;;;;;5113447;28;20047;-70
2021/04/23 00:31:32;;;;;;;15.57;7.03;;;4.50;90.30;;;;;;5113396;28;20036;-70
2021/04/23 00:33:58;;;;;;;13.15;5.93;;;4.60;90.30;;;;;;5113489;28;20028;-70
2021/04/23 00:36:24;;;;;;;13.30;6.25;;;4.50;90.30;;;;;;5113366;28;20043;-70
2021/04/23 00:38:50;;;;;;;19.92;6.47;;;4.50;90.30;;;;;;5113566;28;20039;-70
2021/04/23 00:41:19;;;;;;;13.63;5.75;;;4.50;90.30;;;;;;5113718;28;20042;-70
2021/04/23 00:43:55;;;;;;;20.55;6.97;;;4.50;90.20;;;;;;5112355;28;20039;-70
2021/04/23 00:46:21;;;;;;;15.32;5.45;;;4.50;90.20;;;;;;5112864;28;20039;-70
2021/04/23 00:48:48;;;;;;;16.33;5.65;;;4.50;90.20;;;;;;5113961;28;20062;-70
2021/04/23 00:51:32;;;;;;;15.90;6.03;;;4.50;90.10;;;;;;5113219;28;20064;-70
2021/04/23 00:53:59;;;;;;;14.23;5.32;;;4.50;90.30;;;;;;5113613;28;20067;-70
2021/04/23 00:56:33;;;;;;;15.68;5.50;;;4.40;90.30;;;;;;5112936;28;20048;-70
2021/04/23 00:58:59;;;;;;;17.70;5.95;;;4.40;90.30;;;;;;5113190;28;20467;-70
2021/04/23 01:01:35;;;;;;;13.77;5.70;;;4.40;90.30;;;;;;5112945;28;20411;-70
2021/04/23 01:04:03;;;;;;;13.13;5.35;;;4.40;90.40;;;;;;5113629;28;20032;-70
2021/04/23 01:06:33;;;;;;;12.43;5.13;;;4.30;90.40;;;;;;5112498;28;20043;-70
2021/04/23 01:09:10;;;;;;;14.15;5.50;;;4.40;90.50;;;;;;5113216;28;20040;-70
2021/04/23 01:11:36;;;;;;;11.23;5.10;;;4.30;90.50;;;;;;5113693;28;20031;-70
2021/04/23 01:14:03;;;;;;;12.38;5.50;;;4.30;90.50;;;;;;5115008;28;20533;-70
2021/04/23 01:16:29;;;;;;;15.73;6.90;;;4.30;90.60;;;;;;5116388;28;20463;-70
2021/04/23 01:18:56;;;;;;;11.60;5.03;;;4.30;90.70;;;;;;5117187;28;20115;-70
2021/04/23 01:21:28;;;;;;;13.38;5.55;;;4.20;90.80;;;;;;5116943;28;20057;-70
2021/04/23 01:23:56;;;;;;;12.75;5.38;;;4.20;91.00;;;;;;5117203;28;20039;-70
2021/04/23 01:26:25;;;;;;;11.82;5.13;;;4.20;91.10;;;;;;5115910;28;20038;-70
2021/04/23 01:28:53;;;;;;;11.40;5.70;;;4.20;90.90;;;;;;5117329;28;20044;-70
2021/04/23 01:31:22;;;;;;;13.95;6.80;;;4.10;91.10;;;;;;5116616;28;20036;-70
2021/04/23 01:33:53;;;;;;;20.60;6.63;;;4.10;91.10;;;;;;5116782;28;20129;-70
2021/04/23 01:36:22;;;;;;;14.50;5.47;;;4.10;91.20;;;;;;5115933;28;20040;-70
2021/04/23 01:38:49;;;;;;;13.50;5.50;;;4.10;91.20;;;;;;5116492;28;20058;-70
2021/04/23 01:41:15;;;;;;;14.00;5.35;;;4.10;91.20;;;;;;5116408;28;20039;-70
2021/04/23 01:43:44;;;;;;;15.05;6.07;;;4.10;91.20;;;;;;5116686;28;20036;-70
2021/04/23 01:46:11;;;;;;;17.20;4.95;;;4.10;91.20;;;;;;5115823;28;20042;-70
2021/04/23 01:48:37;;;;;;;11.98;5.10;;;4.00;91.40;;;;;;5116044;28;20035;-70
2021/04/23 01:51:06;;;;;;;19.00;6.63;;;4.00;91.40;;;;;;5116467;28;20031;-70
2021/04/23 01:53:32;;;;;;;9.93;5.15;;;4.00;91.40;;;;;;5115979;28;20364;-70
2021/04/23 01:55:58;;;;;;;15.82;5.03;;;4.00;91.50;;;;;;5115553;28;20093;-70
2021/04/23 01:58:24;;;;;;;11.02;5.13;;;4.00;91.50;;;;;;5115896;28;20425;-70
2021/04/23 02:00:54;;;;;;;14.73;5.65;;;4.10;91.50;;;;;;5116019;28;20040;-70
2021/04/23 02:03:20;;;;;;;15.40;5.88;;;4.10;91.40;;;;;;5115835;28;20039;-70
2021/04/23 02:05:48;;;;;;;13.35;5.05;;;4.00;91.50;;;;;;5115430;28;20084;-70
2021/04/23 02:08:16;;;;;;;12.05;5.50;;;4.00;91.60;;;;;;5115594;27;20484;-70
2021/04/23 02:10:47;;;;;;;16.75;5.32;;;4.00;91.80;;;;;;5115552;28;20514;-70
2021/04/23 02:13:19;;;;;;;14.55;5.38;;;4.00;91.80;;;;;;5116214;28;20067;-70
2021/04/23 02:15:44;;;;;;;11.68;5.65;;;4.00;91.80;;;;;;5115575;28;20531;-70
2021/04/23 02:18:10;;;;;;;15.98;5.43;;;4.00;91.90;;;;;;5115788;28;20074;-70
2021/04/23 02:20:37;;;;;;;14.20;4.80;;;3.90;91.90;;;;;;5115408;28;20039;-70
2021/04/23 02:23:07;;;;;;;11.45;4.65;;;3.90;91.90;;;;;;5115541;28;20040;-70
2021/04/23 02:25:34;;;;;;;13.02;5.32;;;3.90;91.90;;;;;;5114256;28;20096;-70
2021/04/23 02:28:00;;;;;;;14.85;5.95;;;3.90;91.90;;;;;;5115584;28;20042;-70
2021/04/23 02:30:32;;;;;;;11.35;4.20;;;4.00;91.90;;;;;;5115158;28;20036;-70
2021/04/23 02:32:58;;;;;;;16.35;5.32;;;3.90;91.80;;;;;;5115864;28;20051;-70
2021/04/23 02:35:25;;;;;;;8.88;4.32;;;3.90;91.90;;;;;;5115039;28;20043;-70
2021/04/23 02:37:51;;;;;;;10.85;4.70;;;3.90;91.80;;;;;;5115085;28;20490;-70
2021/04/23 02:40:20;;;;;;;20.17;6.20;;;3.80;92.00;;;;;;5115010;28;20536;-70
2021/04/23 02:42:48;;;;;;;15.73;5.35;;;3.80;92.00;;;;;;5115206;28;20376;-70
2021/04/23 02:45:18;;;;;;;12.48;5.05;;;3.80;92.00;;;;;;5114538;28;20165;-70
2021/04/23 02:47:45;;;;;;;13.50;5.10;;;3.70;92.00;;;;;;5114818;27;20038;-70
2021/04/23 02:50:14;;;;;;;14.30;5.25;;;3.80;92.10;;;;;;5114835;27;20088;-70
2021/04/23 02:52:39;;;;;;;10.15;4.30;;;3.80;92.00;;;;;;5114900;28;20031;-70
2021/04/23 02:55:07;;;;;;;13.07;4.68;;;3.70;92.10;;;;;;5114535;28;20046;-70
2021/04/23 02:57:33;;;;;;;10.25;5.05;;;3.80;92.10;;;;;;5115150;28;20096;-70
2021/04/23 02:59:59;;;;;;;10.32;4.70;;;3.70;92.20;;;;;;5114741;28;20480;-70
2021/04/23 03:02:25;;;;;;;8.55;4.22;;;3.70;92.10;;;;;;5114943;28;20031;-70
2021/04/23 03:04:51;;;;;;;10.35;4.22;;;3.80;92.10;;;;;;5114115;28;20051;-70
2021/04/23 03:07:20;;;;;;;15.77;5.05;;;3.80;92.10;;;;;;5114328;28;20036;-70
2021/04/23 03:09:48;;;;;;;25.90;5.53;;;3.80;92.10;;;;;;5113644;28;20048;-70
2021/04/23 03:12:14;;;;;;;11.35;4.95;;;3.80;92.00;;;;;;5115055;28;20046;-70
2021/04/23 03:14:41;;;;;;;12.70;5.30;;;3.70;91.90;;;;;;5112954;28;20412;-70
2021/04/23 03:17:06;;;;;;;11.68;4.85;;;3.70;92.00;;;;;;5114248;28;20039;-70
2021/04/23 03:19:32;;;;;;;9.13;4.47;;;3.80;92.00;;;;;;5114269;28;20038;-70
2021/04/23 03:21:58;;;;;;;15.68;4.88;;;3.80;92.00;;;;;;5114272;28;20042;-70
2021/04/23 03:24:23;;;;;;;12.55;5.75;;;3.70;91.90;;;;;;5114268;28;20456;-70
2021/04/23 03:26:49;;;;;;;10.93;5.90;;;3.70;92.00;;;;;;5114108;27;20051;-70
2021/04/23 03:29:16;;;;;;;12.00;4.72;;;3.70;92.10;;;;;;5114092;28;20404;-70
2021/04/23 03:31:43;;;;;;;13.00;4.28;;;3.70;92.00;;;;;;5114762;28;20035;-70
2021/04/23 03:34:09;;;;;;;10.40;4.95;;;3.70;92.10;;;;;;5114238;28;20036;-70
2021/04/23 03:36:36;;;;;;;19.25;4.93;;;3.70;92.20;;;;;;5113224;28;20040;-70
2021/04/23 03:39:04;;;;;;;14.18;4.63;;;3.70;92.30;;;;;;5113891;28;20114;-70
2021/04/23 03:41:31;;;;;;;16.85;5.47;;;3.70;92.20;;;;;;5114070;28;20513;-70
2021/04/23 03:43:58;;;;;;;11.57;3.90;;;3.70;92.20;;;;;;5114574;28;20040;-70
2021/04/23 03:46:25;;;;;;;11.43;4.70;;;3.70;92.20;;;;;;5113883;28;20036;-70
2021/04/23 03:48:50;;;;;;;12.35;3.58;;;3.70;92.20;;;;;;5113930;28;20388;-70
2021/04/23 03:51:18;;;;;;;10.18;4.15;;;3.70;92.10;;;;;;5113860;28;20089;-70
2021/04/23 03:53:45;;;;;;;9.25;4.22;;;3.70;92.40;;;;;;5114216;28;20078;-70
2021/04/23 03:56:12;;;;;;;15.20;4.68;;;3.80;92.30;;;;;;5113482;28;20410;-70
2021/04/23 03:58:39;;;;;;;10.57;4.20;;;3.80;92.40;;;;;;5114414;28;20163;-70
2021/04/23 04:01:11;;;;;;;9.65;3.38;;;3.90;92.50;;;;;;5113714;28;20036;-70
2021/04/23 04:03:38;;;;;;;12.88;4.47;;;3.90;92.40;;;;;;5113892;28;20039;-70
2021/04/23 04:06:05;;;;;;;15.45;5.03;;;4.00;92.60;;;;;;5113202;28;20036;-70
2021/04/23 04:08:32;;;;;;;12.50;4.25;;;4.00;92.60;;;;;;5113512;28;20040;-70
2021/04/23 04:10:58;;;;;;;11.93;5.03;;;4.10;92.70;;;;;;5113439;28;20042;-70
2021/04/23 04:13:24;;;;;;;15.85;4.38;;;4.10;92.70;;;;;;5113878;28;20047;-70
2021/04/23 04:15:50;;;;;;;11.77;3.90;;;4.20;92.60;;;;;;5113150;28;20035;-70
2021/04/23 04:18:17;;;;;;;13.55;4.10;;;4.20;92.50;;;;;;5113560;28;20377;-70
2021/04/23 04:20:45;;;;;;;13.27;4.30;;;4.30;92.50;;;;;;5113482;28;20118;-70
2021/04/23 04:23:15;;;;;;;12.20;4.05;;;4.20;92.50;;;;;;5114021;28;20046;-70
2021/04/23 04:25:55;;;;;;;12.05;4.20;;;4.30;92.40;;;;;;5112986;28;20043;-70
2021/04/23 04:28:22;;;;;;;13.07;3.80;;;4.30;92.50;;;;;;5113677;28;20476;-70
2021/04/23 04:30:48;;;;;;;21.10;4.65;;;4.30;92.40;;;;;;5113773;28;20088;-70
2021/04/23 04:33:15;;;;;;;14.48;4.78;;;4.30;92.40;;;;;;5113804;28;20035;-70
2021/04/23 04:35:42;;;;;;;11.45;3.72;;;4.30;92.40;;;;;;5113058;28;20070;-70
2021/04/23 04:38:10;;;;;;;10.98;5.30;;;4.30;92.30;;;;;;5113728;28;20071;-70
2021/04/23 04:40:38;;;;;;;11.00;4.53;;;4.30;92.40;;;;;;5113229;28;20043;-70
2021/04/23 04:43:07;;;;;;;12.32;4.30;;;4.30;92.30;;;;;;5113211;28;20044;-70
2021/04/23 04:45:34;;;;;;;13.32;4.32;;;4.20;92.30;;;;;;5112978;28;20504;-69
2021/04/23 04:48:00;;;;;;;10.35;4.00;;;4.20;92.30;;;;;;5114947;28;20084;-69
2021/04/23 04:50:31;;;;;;;9.63;3.63;;;4.20;92.40;;;;;;5117492;28;20088;-70
2021/04/23 04:52:59;;;;;;;12.35;4.10;;;4.20;92.60;;;;;;5117865;28;20670;-70
2021/04/23 04:55:29;;;;;;;13.57;4.78;;;4.20;92.60;;;;;;5116851;28;20043;-70
2021/04/23 04:57:56;;;;;;;13.75;4.50;;;4.20;92.50;;;;;;5116985;28;20036;-70
2021/04/23 05:00:23;;;;;;;9.05;3.42;;;4.20;92.50;;;;;;5117017;28;20032;-70
2021/04/23 05:02:49;;;;;;;13.43;3.22;;;4.20;92.40;;;;;;5117090;28;20514;-70
2021/04/23 05:05:17;;;;;;;9.30;4.20;;;4.20;92.40;;;;;;5116768;27;20073;-70
2021/04/23 05:07:42;;;;;;;16.83;4.32;;;4.30;92.30;;;;;;5116740;28;20443;-70
2021/04/23 05:10:09;;;;;;;15.07;3.80;;;4.30;92.40;;;;;;5116961;28;20067;-70
2021/04/23 05:12:35;;;;;;;9.63;4.03;;;4.30;92.40;;;;;;5117007;28;20048;-70
2021/04/23 05:15:03;;;;;;;11.73;4.35;;;4.30;92.40;;;;;;5116646;28;20116;-70
2021/04/23 05:17:29;;;;;;;12.57;4.13;;;4.40;92.70;;;;;;5116691;27;20043;-70
2021/04/23 05:19:55;;;;;;;17.10;4.60;;;4.40;92.30;;;;;;5117236;28;20452;-70
2021/04/23 05:22:21;;;;;;;9.60;3.95;;;4.50;92.40;;;;;;5117092;28;20039;-70
2021/04/23 05:24:47;;;;;;;15.43;4.93;;;4.50;92.40;;;;;;5116044;28;20050;-70
2021/04/23 05:27:13;;;;;;;11.23;4.15;;;4.60;92.30;;;;;;5116968;28;20063;-70
2021/04/23 05:29:38;;;;;;;9.30;3.97;;;4.80;92.20;;;;;;5116373;28;20402;-70
2021/04/23 05:32:05;;;;;;;10.57;4.25;;;4.90;92.00;;;;;;5117048;28;20088;-69
2021/04/23 05:34:34;;;;;;;15.95;3.70;;;5.20;91.90;;;;;;5116651;28;20071;-71
2021/04/23 05:37:00;;;;;;;15.50;4.82;;;5.30;91.40;;;;;;5115073;27;20091;-71
2021/04/23 05:39:26;;;;;;;8.55;3.63;;;5.30;91.50;;;;;;5115364;28;20089;-71
2021/04/23 05:41:52;;;;;;;12.35;3.92;;;5.30;91.20;;;;;;5116633;28;20527;-71
2021/04/23 05:44:19;;;;;;;12.10;3.80;;;5.30;91.50;;;;;;5116516;28;20035;-71
2021/04/23 05:46:45;;;;;;;17.33;4.13;;;5.30;91.30;;;;;;5115763;28;20433;-71
2021/04/23 05:49:11;;;;;;;9.18;3.55;;;5.30;91.20;;;;;;5116798;28;20035;-71
2021/04/23 05:51:37;;;;;;;12.27;3.92;;;5.30;91.40;;;;;;5116046;28;20034;-71
2021/04/23 05:54:04;;;;;;;20.38;4.25;;;5.40;91.30;;;;;;5116579;28;20092;-71
2021/04/23 05:56:30;;;;;;;14.10;4.00;;;5.40;91.10;;;;;;5115873;27;20113;-71
2021/04/23 05:58:55;;;;;;;14.25;4.60;;;5.50;91.00;;;;;;5115864;28;20048;-71
2021/04/23 06:01:22;;;;;;;11.57;4.07;;;5.60;90.90;;;;;;5116412;28;20119;-71
2021/04/23 06:03:49;;;;;;;15.52;3.85;;;5.60;90.80;;;;;;5115759;28;20491;-71
2021/04/23 06:06:16;;;;;;;8.95;4.07;;;5.80;90.80;;;;;;5115136;28;20388;-71
2021/04/23 06:08:42;;;;;;;10.38;4.10;;;6.10;90.60;;;;;;5116254;28;20123;-71
2021/04/23 06:11:14;;;;;;;12.85;4.72;;;6.70;90.20;;;;;;5115936;28;20039;-71
2021/04/23 06:13:41;;;;;;;15.75;4.25;;;7.20;88.60;;;;;;5115981;28;20092;-71
2021/04/23 06:16:07;;;;;;;13.65;4.05;;;7.60;86.90;;;;;;5115114;28;20048;-71
2021/04/23 06:18:33;;;;;;;15.57;4.47;;;7.60;85.30;;;;;;5115409;28;20062;-71
2021/04/23 06:20:59;;;;;;;13.10;4.25;;;7.40;85.00;;;;;;5115546;27;20027;-71
2021/04/23 06:23:25;;;;;;;10.20;4.05;;;7.20;85.30;;;;;;5115285;28;20036;-69
2021/04/23 06:25:51;;;;;;;8.90;3.90;;;7.10;85.40;;;;;;5114709;28;20046;-69
2021/04/23 06:28:16;;;;;;;11.77;3.92;;;7.30;86.00;;;;;;5115738;28;20039;-71
2021/04/23 06:30:42;;;;;;;10.77;3.95;;;7.30;86.00;;;;;;5115343;28;20472;-73
2021/04/23 06:33:23;;;;;;;11.85;4.07;;;7.30;86.10;;;;;;5115111;28;20042;-72
2021/04/23 06:35:49;;;;;;;16.88;5.05;;;7.80;86.00;;;;;;5115140;28;20050;-72
2021/04/23 06:38:16;;;;;;;12.13;4.10;;;8.00;85.30;;;;;;5115452;28;20032;-72
2021/04/23 06:40:42;;;;;;;11.63;4.75;;;8.00;84.60;;;;;;5115680;28;20043;-72
2021/04/23 06:43:08;;;;;;;9.32;4.70;;;8.20;83.90;;;;;;5115571;28;20039;-72
2021/04/23 06:45:35;;;;;;;8.57;3.95;;;8.40;83.40;;;;;;5114976;28;20067;-72
2021/04/23 06:48:01;;;;;;;10.70;4.65;;;8.70;82.80;;;;;;5114742;28;20051;-72
2021/04/23 06:50:27;;;;;;;14.85;4.90;;;8.60;82.10;;;;;;5115220;27;20038;-72
2021/04/23 06:52:53;;;;;;;13.18;4.13;;;8.50;82.20;;;;;;5115297;28;20070;-72
2021/04/23 06:55:21;;;;;;;10.43;4.65;;;8.40;82.60;;;;;;5114524;28;20058;-72
2021/04/23 06:57:47;;;;;;;13.13;5.82;;;8.40;82.30;;;;;;5115395;28;20036;-72
2021/04/23 07:00:20;;;;;;;10.25;5.05;;;8.50;83.30;;;;;;5114697;28;20058;-72
2021/04/23 07:02:46;;;;;;;10.82;5.65;;;9.00;82.50;;;;;;5114914;28;20063;-72
2021/04/23 07:05:16;;;;;;;11.32;4.28;;;9.70;81.50;;;;;;5114449;28;20063;-72
2021/04/23 07:07:42;;;;;;;12.27;4.43;;;10.30;79.40;;;;;;5114598;28;20114;-72
2021/04/23 07:10:10;;;;;;;13.93;4.30;;;10.90;78.00;;;;;;5114113;28;20444;-72
2021/04/23 07:12:36;;;;;;;16.55;5.13;;;11.30;76.20;;;;;;5114573;28;20027;-72
2021/04/23 07:15:04;;;;;;;12.70;4.60;;;11.50;74.00;;;;;;5114199;28;20044;-72
2021/04/23 07:17:31;;;;;;;10.88;4.50;;;11.50;73.50;;;;;;5114381;28;20118;-72
2021/04/23 07:19:56;;;;;;;11.57;4.22;;;11.70;73.80;;;;;;5114325;28;20502;-72
2021/04/23 07:22:22;;;;;;;8.98;4.32;;;11.70;72.60;;;;;;5114808;28;20092;-72
2021/04/23 07:24:48;;;;;;;9.85;5.50;;;11.50;73.20;;;;;;5114473;28;20054;-72
2021/04/23 07:27:16;;;;;;;10.85;5.05;;;11.50;73.30;;;;;;5114182;28;20040;-72
2021/04/23 07:29:42;;;;;;;10.90;5.28;;;11.50;72.70;;;;;;5114240;28;20035;-72
2021/04/23 07:32:08;;;;;;;12.23;5.45;;;11.00;73.30;;;;;;5114215;28;20399;-72
2021/04/23 07:34:35;;;;;;;9.20;4.80;;;10.60;74.10;;;;;;5114189;28;20043;-72
2021/04/23 07:37:02;;;;;;;10.75;5.00;;;10.20;75.30;;;;;;5112908;28;20032;-72
2021/04/23 07:39:27;;;;;;;10.38;5.30;;;9.90;76.60;;;;;;5112923;28;20035;-72
2021/04/23 07:41:54;;;;;;;12.73;5.45;;;9.80;77.40;;;;;;5114196;28;20532;-72
2021/04/23 07:44:22;;;;;;;9.55;4.60;;;10.30;78.10;;;;;;5113915;28;20483;-72
2021/04/23 07:46:48;;;;;;;9.57;4.72;;;10.80;76.40;;;;;;5114032;28;20424;-72
2021/04/23 07:49:14;;;;;;;10.73;5.18;;;11.30;71.90;;;;;;5113942;28;20043;-72
2021/04/23 07:51:40;;;;;;;9.40;4.78;;;11.10;69.40;;;;;;5114103;28;20122;-72
2021/04/23 07:54:07;;;;;;;9.98;4.57;;;10.90;70.50;;;;;;5114489;28;20464;-72
2021/04/23 07:56:33;;;;;;;8.68;4.20;;;10.50;70.30;;;;;;5113444;28;20043;-72
2021/04/23 07:58:59;;;;;;;15.60;4.93;;;10.20;68.50;;;;;;5114175;28;20062;-72
2021/04/23 08:01:24;;;;;;;8.55;4.55;;;9.90;69.80;;;;;;5114053;28;20088;-72
2021/04/23 08:03:50;;;;;;;8.23;4.30;;;9.90;70.70;;;;;;5114271;28;20038;-72
2021/04/23 08:06:16;;;;;;;10.57;4.40;;;10.10;70.90;;;;;;5113407;28;20123;-72
2021/04/23 08:08:42;;;;;;;7.53;4.07;;;10.10;70.50;;;;;;5114326;28;20040;-72
2021/04/23 08:11:07;;;;;;;6.68;3.95;;;10.10;70.20;;;;;;5113744;28;20046;-72
2021/04/23 08:13:33;;;;;;;9.02;4.38;;;10.10;70.30;;;;;;5113857;28;20114;-72
2021/04/23 08:15:59;;;;;;;9.52;4.88;;;10.00;70.60;;;;;;5113642;28;20035;-70
2021/04/23 08:18:25;;;;;;;11.75;4.53;;;9.90;70.30;;;;;;5114237;28;20039;-70
2021/04/23 08:20:51;;;;;;;8.98;4.65;;;9.80;71.40;;;;;;5113720;28;20043;-70
2021/04/23 08:23:17;;;;;;;12.50;4.70;;;9.40;71.80;;;;;;5117925;28;20433;-71
2021/04/23 08:25:42;;;;;;;10.30;5.03;;;9.40;73.30;;;;;;5117543;28;20046;-72
2021/04/23 08:28:08;;;;;;;11.45;5.95;;;9.40;72.20;;;;;;5117903;28;20399;-70
2021/04/23 08:30:35;;;;;;;9.57;4.45;;;9.10;71.80;;;;;;5117635;28;20547;-70
2021/04/23 08:33:00;;;;;;;8.50;4.30;;;9.20;72.40;;;;;;5116616;28;20036;-70
2021/04/23 08:35:27;;;;;;;9.25;3.97;;;9.80;72.10;;;;;;5117497;28;20039;-70
2021/04/23 08:37:54;;;;;;;9.85;3.40;;;10.50;70.20;;;;;;5117715;28;20035;-70
2021/04/23 08:40:21;;;;;;;7.25;3.55;;;10.90;66.50;;;;;;5117754;28;20383;-70
2021/04/23 08:42:51;;;;;;;10.32;3.90;;;10.80;65.60;;;;;;5116321;28;20042;-70
2021/04/23 08:45:20;;;;;;;8.30;3.78;;;11.30;65.50;;;;;;5116839;28;20509;-70
2021/04/23 08:47:47;;;;;;;7.85;3.72;;;11.70;64.30;;;;;;5117204;27;20043;-70
2021/04/23 08:50:14;;;;;;;6.85;3.58;;;12.10;64.10;;;;;;5117396;28;20039;-70
2021/04/23 08:52:42;;;;;;;6.68;3.03;;;12.50;62.80;;;;;;5117198;28;20146;-70
2021/04/23 08:55:10;;;;;;;10.25;3.60;;;12.30;60.40;;;;;;5116870;27;20039;-70
2021/04/23 08:57:36;;;;;;;8.65;3.20;;;12.10;60.00;;;;;;5117236;28;20071;-70
2021/04/23 09:00:04;;;;;;;7.53;3.65;;;11.90;60.40;;;;;;5117494;28;20066;-70
2021/04/23 09:02:30;;;;;;;9.07;3.63;;;11.70;60.80;;;;;;5117840;28;20399;-70
2021/04/23 09:04:56;;;;;;;6.43;2.88;;;12.30;60.70;;;;;;5117062;28;20067;-70
2021/04/23 09:07:21;;;;;;;8.23;3.88;;;12.70;59.80;;;;;;5116775;28;20506;-70
2021/04/23 09:09:48;;;;;;;7.88;3.65;;;12.40;58.90;;;;;;5117184;28;20188;-70
2021/04/23 09:12:24;;;;;;;9.85;3.95;;;12.40;60.50;;;;;;5117220;28;20114;-70
2021/04/23 09:14:54;;;;;;;7.15;3.63;;;12.50;60.40;;;;;;5116596;28;20043;-70
2021/04/23 09:17:25;;;;;;;7.18;3.97;;;12.20;61.10;;;;;;5116864;28;20368;-70
2021/04/23 09:19:55;;;;;;;9.15;4.50;;;11.30;63.70;;;;;;5116902;28;20384;-70
2021/04/23 09:22:32;;;;;;;6.80;4.07;;;12.00;63.40;;;;;;5116712;28;20115;-70
2021/04/23 09:25:12;;;;;;;8.45;3.47;;;12.10;62.40;;;;;;5116699;28;20043;-70
2021/04/23 09:27:40;;;;;;;7.95;2.58;;;12.40;61.70;;;;;;5116495;28;20047;-69
2021/04/23 09:30:08;;;;;;;8.43;3.60;;;12.20;60.80;;;;;;5116683;28;20060;-70
2021/04/23 09:32:38;;;;;;;10.43;3.40;;;11.30;61.00;;;;;;5116625;28;20043;-70
2021/04/23 09:35:11;;;;;;;8.45;3.75;;;11.40;62.70;;;;;;5116152;28;20039;-70
2021/04/23 09:37:44;;;;;;;6.50;2.97;;;11.30;61.60;;;;;;5116892;28;20036;-70
2021/04/23 09:40:14;;;;;;;6.10;3.83;;;11.50;62.40;;;;;;5116820;28;20040;-70
2021/04/23 09:43:00;;;;;;;10.88;3.42;;;11.70;62.60;;;;;;5116230;28;20039;-70
2021/04/23 09:45:32;;;;;;;7.13;3.35;;;11.80;60.00;;;;;;5115839;28;20044;-70
2021/04/23 09:47:58;;;;;;;9.45;3.70;;;11.80;60.50;;;;;;5116078;28;20061;-70
2021/04/23 09:50:31;;;;;;;12.02;3.70;;;11.70;60.50;;;;;;5115643;28;20059;-70
2021/04/23 09:53:00;;;;;;;7.32;3.80;;;12.00;61.10;;;;;;5116376;28;20070;-70
2021/04/23 09:55:33;;;;;;;6.60;3.17;;;11.70;60.60;;;;;;5114326;28;20066;-70
2021/04/23 09:58:07;;;;;;;6.00;2.85;;;11.70;59.70;;;;;;5115712;28;20032;-70
2021/04/23 10:00:36;;;;;;;8.10;3.30;;;11.50;59.10;;;;;;5115891;27;20074;-70
2021/04/23 10:03:04;;;;;;;7.25;3.90;;;12.20;60.70;;;;;;5115749;28;20035;-70
2021/04/23 10:05:39;;;;;;;6.97;3.78;;;11.90;60.70;;;;;;5115225;28;20050;-70
2021/04/23 10:08:11;;;;;;;8.57;3.88;;;12.00;60.00;;;;;;5115399;28;20064;-71
2021/04/23 10:10:38;;;;;;;9.50;3.67;;;12.10;58.90;;;;;;5115927;28;20429;-71
2021/04/23 10:13:08;;;;;;;9.98;3.08;;;12.00;59.10;;;;;;5114920;28;20035;-71
2021/04/23 10:15:43;;;;;;;6.30;2.85;;;12.40;59.20;;;;;;5115261;28;20411;-71
2021/04/23 10:18:12;;;;;;;6.47;3.33;;;12.40;58.10;;;;;;5115542;28;20039;-71
2021/04/23 10:20:45;;;;;;;8.73;3.08;;;12.60;56.20;;;;;;5115474;28;20044;-70
2021/04/23 10:23:13;;;;;;;7.10;3.50;;;12.70;57.00;;;;;;5115441;28;20042;-71
2021/04/23 10:25:40;;;;;;;10.25;3.40;;;12.40;56.90;;;;;;5114929;28;20042;-71
2021/04/23 10:28:09;;;;;;;4.70;3.22;;;12.50;57.70;;;;;;5115841;28;20130;-71
2021/04/23 10:30:40;;;;;;;8.38;3.75;;;12.80;58.10;;;;;;5115317;28;20035;-71
2021/04/23 10:33:10;;;;;;;7.07;3.72;;;12.70;58.20;;;;;;5116027;28;20040;-70
2021/04/23 10:35:37;;;;;;;9.45;2.92;;;12.70;58.00;;;;;;5115087;28;20475;-71
2021/04/23 10:38:06;;;;;;;7.50;3.22;;;12.30;56.00;;;;;;5115551;28;20032;-71
2021/04/23 10:40:32;;;;;;;7.75;2.67;;;12.20;55.40;;;;;;5115662;28;20357;-71
2021/04/23 10:43:18;;;;;;;6.63;2.40;;;12.20;55.00;;;;;;5115632;28;20074;-71
2021/04/23 10:45:58;;;;;;;8.52;2.78;;;12.30;54.90;;;;;;5112357;28;20040;-71
2021/04/23 10:48:32;;;;;;;6.70;3.17;;;12.60;56.60;;;;;;5114969;28;20498;-71
2021/04/23 10:51:02;;;;;;;7.20;4.05;;;12.70;57.00;;;;;;5114070;28;20495;-71
2021/04/23 10:53:41;;;;;;;8.55;4.00;;;12.40;57.20;;;;;;5114899;28;20043;-71
2021/04/23 10:56:19;;;;;;;7.00;3.40;;;12.40;56.70;;;;;;5114785;27;20437;-73
2021/04/23 10:58:45;;;;;;;6.40;3.75;;;12.50;56.80;;;;;;5120771;27;20039;-73
2021/04/23 11:01:13;;;;;;;7.22;3.60;;;12.60;57.90;;;;;;5119976;27;20050;-70
2021/04/23 11:03:41;;;;;;;6.05;3.03;;;12.50;57.80;;;;;;5114597;28;20040;-70
2021/04/23 11:06:12;;;;;;;4.90;3.33;;;11.80;56.00;;;;;;5113950;27;20035;-71
2021/04/23 11:08:59;;;;;;;7.68;4.10;;;11.80;57.40;;;;;;5113788;28;20552;-70
2021/04/23 11:11:29;;;;;;;7.65;3.20;;;11.80;56.80;;;;;;5114383;28;20471;-70
2021/04/23 11:13:55;;;;;;;7.70;2.83;;;12.00;56.10;;;;;;5115158;28;20043;-70
2021/04/23 11:16:24;;;;;;;6.80;3.50;;;12.20;55.70;;;;;;5113904;28;20128;-71
2021/04/23 11:18:53;;;;;;;8.43;3.20;;;12.30;56.90;;;;;;5114373;28;20063;-70
2021/04/23 11:21:32;;;;;;;9.00;3.70;;;12.10;58.10;;;;;;5114278;28;20067;-71
2021/04/23 11:24:16;;;;;;;9.50;3.28;;;11.80;57.40;;;;;;5114608;28;20031;-70
2021/04/23 11:26:54;;;;;;;8.85;3.28;;;11.40;55.50;;;;;;5114297;28;20039;-70
2021/04/23 11:29:20;;;;;;;7.70;2.95;;;11.50;56.50;;;;;;5114433;28;20054;-70
2021/04/23 11:32:18;;;;;;;5.85;2.88;;;11.60;55.50;;;;;;5114130;28;20035;-71
2021/04/23 11:34:58;;;;;;;5.15;2.45;;;11.30;53.50;;;;;;5113937;28;20403;-71
2021/04/23 11:37:46;;;;;;;5.68;3.08;;;11.50;55.40;;;;;;5114036;28;20035;-71
2021/04/23 11:40:28;;;;;;;7.30;3.05;;;11.60;57.30;;;;;;5114390;28;20384;-71
2021/04/23 11:43:01;;;;;;;9.13;3.03;;;11.50;57.10;;;;;;5115641;27;20036;-70
2021/04/23 11:45:30;;;;;;;8.63;3.05;;;11.70;57.80;;;;;;5113831;28;20040;-71
2021/04/23 11:48:00;;;;;;;5.07;2.78;;;11.60;55.80;;;;;;5112822;28;20050;-71
2021/04/23 11:50:37;;;;;;;7.68;3.35;;;11.40;55.80;;;;;;5114097;28;20081;-71
2021/04/23 11:53:21;;;;;;;4.95;2.28;;;11.60;56.30;;;;;;5114244;28;20036;-70
2021/04/23 11:55:48;;;;;;;;;;;11.70;51.90;;;;;;5113832;28;20039;-71
2021/04/23 11:58:13;;;;;;;5.90;3.10;;;11.90;54.40;;;;;;5113894;28;19915;-70
2021/04/23 12:00:41;;;;;;;5.85;2.10;;;11.80;55.90;;;;;;5113747;28;20032;-70
2021/04/23 12:03:19;;;;;;;4.40;2.25;;;11.50;54.00;;;;;;5113650;28;20446;-70
2021/04/23 12:05:52;;;;;;;6.05;2.65;;;11.40;52.50;;;;;;5113325;28;20498;-70
2021/04/23 12:08:22;;;;;;;7.20;2.70;;;11.20;53.60;;;;;;5113499;28;20039;-70
2021/04/23 12:10:50;;;;;;;6.57;2.75;;;11.50;55.00;;;;;;5113539;28;20043;-70
2021/04/23 12:13:25;;;;;;;6.82;2.47;;;11.40;53.60;;;;;;5113321;28;20584;-71
2021/04/23 12:15:54;;;;;;;8.43;2.25;;;11.30;52.80;;;;;;5113765;28;20043;-70
2021/04/23 12:18:20;;;;;;;7.68;3.40;;;11.30;52.20;;;;;;5113553;28;20088;-70
2021/04/23 12:20:54;;;;;;;7.63;2.70;;;11.60;54.60;;;;;;5113418;28;20380;-70
2021/04/23 12:23:22;;;;;;;7.32;3.03;;;11.70;53.20;;;;;;5113554;28;20479;-70
2021/04/23 12:25:51;;;;;;;7.00;3.05;;;11.90;54.40;;;;;;5113425;28;20430;-73
2021/04/23 12:28:38;;;;;;;10.20;2.90;;;11.70;55.40;;;;;;5112569;28;20039;-71
2021/04/23 12:31:03;;;;;;;7.65;2.92;;;11.60;55.70;;;;;;5114075;28;20521;-70
2021/04/23 12:33:42;;;;;;;8.40;2.83;;;11.80;56.70;;;;;;5113587;28;20071;-71
2021/04/23 12:36:31;;;;;;;6.45;2.88;;;11.80;55.30;;;;;;5113133;28;20552;-71
2021/04/23 12:39:02;;;;;;;8.32;2.45;;;11.90;55.90;;;;;;5113275;28;20112;-70
2021/04/23 12:41:35;;;;;;;7.63;3.45;;;12.00;55.30;;;;;;5113604;28;20040;-71
2021/04/23 12:44:21;;;;;;;9.25;2.40;;;12.10;54.50;;;;;;5113434;28;20601;-71
2021/04/23 12:46:55;;;;;;;6.75;2.42;;;12.10;51.80;;;;;;5112299;28;20043;-71
2021/04/23 12:49:23;;;;;;;4.15;2.35;;;12.00;53.40;;;;;;5113929;28;20460;-71
2021/04/23 12:52:15;;;;;;;3.92;2.50;;;12.10;52.60;;;;;;5113239;28;20461;-71
2021/04/23 12:54:52;;;;;;;5.63;2.95;;;12.10;51.80;;;;;;5107903;28;20052;-71
2021/04/23 12:57:29;;;;;;;5.47;2.58;;;12.20;52.50;;;;;;5113495;28;20088;-71